sensor_id;sensor_type;location;lat;lon;timestamp;P1;durP1;ratioP1;P2;durP2;ratioP2
7527;SDS011;3805;49.006;8.514;2022-07-22T00:01:34;9.10;;;8.37;;
7527;SDS011;3805;49.006;8.514;2022-07-22T00:04:23;9.37;;;8.47;;
7527;SDS011;3805;49.006;8.514;2022-07-22T00:07:13;8.73;;;8.03;;
7527;SDS011;3805;49.006;8.514;2022-07-22T00:10:03;9.57;;;8.63;;
7527;SDS011;3805;49.006;8.514;2022-07-22T00:12:52;10.50;;;8.70;;
7527;SDS011;3805;49.006;8.514;2022-07-22T00:15:41;10.60;;;9.70;;
7527;SDS011;3805;49.006;8.514;2022-07-22T00:18:32;11.13;;;9.97;;
7527;SDS011;3805;49.006;8.514;2022-07-22T00:21:21;9.30;;;8.53;;
7527;SDS011;3805;49.006;8.514;2022-07-22T00:24:13;9.70;;;8.83;;
7527;SDS011;3805;49.006;8.514;2022-07-22T00:27:02;10.10;;;9.20;;
7527;SDS011;3805;49.006;8.514;2022-07-22T00:29:51;8.70;;;8.00;;
7527;SDS011;3805;49.006;8.514;2022-07-22T00:32:39;9.50;;;8.73;;
7527;SDS011;3805;49.006;8.514;2022-07-22T00:35:28;10.43;;;9.50;;
7527;SDS011;3805;49.006;8.514;2022-07-22T00:38:16;8.73;;;7.93;;
7527;SDS011;3805;49.006;8.514;2022-07-22T00:41:06;10.23;;;8.63;;
7527;SDS011;3805;49.006;8.514;2022-07-22T00:43:59;8.67;;;7.97;;
7527;SDS011;3805;49.006;8.514;2022-07-22T00:46:51;8.97;;;8.17;;
7527;SDS011;3805;49.006;8.514;2022-07-22T00:49:40;10.63;;;9.77;;
7527;SDS011;3805;49.006;8.514;2022-07-22T00:52:28;9.00;;;8.30;;
7527;SDS011;3805;49.006;8.514;2022-07-22T00:55:17;9.33;;;8.57;;
7527;SDS011;3805;49.006;8.514;2022-07-22T00:58:07;10.20;;;9.27;;
7527;SDS011;3805;49.006;8.514;2022-07-22T01:00:56;9.67;;;8.97;;
7527;SDS011;3805;49.006;8.514;2022-07-22T01:03:44;9.90;;;9.00;;
7527;SDS011;3805;49.006;8.514;2022-07-22T01:06:37;10.47;;;9.37;;
7527;SDS011;3805;49.006;8.514;2022-07-22T01:09:31;9.10;;;8.30;;
7527;SDS011;3805;49.006;8.514;2022-07-22T01:12:20;8.77;;;8.03;;
7527;SDS011;3805;49.006;8.514;2022-07-22T01:15:10;10.00;;;8.93;;
7527;SDS011;3805;49.006;8.514;2022-07-22T01:17:58;10.70;;;9.77;;
7527;SDS011;3805;49.006;8.514;2022-07-22T01:20:48;10.43;;;9.50;;
7527;SDS011;3805;49.006;8.514;2022-07-22T01:23:37;11.53;;;10.57;;
7527;SDS011;3805;49.006;8.514;2022-07-22T01:26:26;10.30;;;9.50;;
7527;SDS011;3805;49.006;8.514;2022-07-22T01:29:15;9.73;;;8.83;;
7527;SDS011;3805;49.006;8.514;2022-07-22T01:32:03;9.10;;;8.50;;
7527;SDS011;3805;49.006;8.514;2022-07-22T01:34:52;10.10;;;9.20;;
7527;SDS011;3805;49.006;8.514;2022-07-22T01:37:45;11.20;;;10.30;;
7527;SDS011;3805;49.006;8.514;2022-07-22T01:40:34;10.97;;;9.97;;
7527;SDS011;3805;49.006;8.514;2022-07-22T01:43:24;11.57;;;9.77;;
7527;SDS011;3805;49.006;8.514;2022-07-22T01:46:13;10.60;;;9.63;;
7527;SDS011;3805;49.006;8.514;2022-07-22T01:49:01;10.30;;;9.50;;
7527;SDS011;3805;49.006;8.514;2022-07-22T01:51:52;10.30;;;9.40;;
7527;SDS011;3805;49.006;8.514;2022-07-22T01:54:41;11.13;;;9.50;;
7527;SDS011;3805;49.006;8.514;2022-07-22T01:57:30;10.47;;;9.63;;
7527;SDS011;3805;49.006;8.514;2022-07-22T02:00:22;11.27;;;10.20;;
7527;SDS011;3805;49.006;8.514;2022-07-22T02:03:10;11.57;;;10.50;;
7527;SDS011;3805;49.006;8.514;2022-07-22T02:05:59;10.67;;;9.70;;
7527;SDS011;3805;49.006;8.514;2022-07-22T02:08:47;10.07;;;9.27;;
7527;SDS011;3805;49.006;8.514;2022-07-22T02:11:37;10.80;;;9.83;;
7527;SDS011;3805;49.006;8.514;2022-07-22T02:14:26;10.73;;;9.80;;
7527;SDS011;3805;49.006;8.514;2022-07-22T02:17:15;10.90;;;9.80;;
7527;SDS011;3805;49.006;8.514;2022-07-22T02:20:04;10.93;;;9.93;;
7527;SDS011;3805;49.006;8.514;2022-07-22T02:22:53;12.50;;;10.57;;
7527;SDS011;3805;49.006;8.514;2022-07-22T02:25:42;11.50;;;10.50;;
7527;SDS011;3805;49.006;8.514;2022-07-22T02:28:32;11.13;;;9.80;;
7527;SDS011;3805;49.006;8.514;2022-07-22T02:31:20;10.70;;;9.67;;
7527;SDS011;3805;49.006;8.514;2022-07-22T02:34:10;11.93;;;10.90;;
7527;SDS011;3805;49.006;8.514;2022-07-22T02:36:59;11.47;;;10.27;;
7527;SDS011;3805;49.006;8.514;2022-07-22T02:39:47;13.90;;;10.80;;
7527;SDS011;3805;49.006;8.514;2022-07-22T02:42:36;11.80;;;10.60;;
7527;SDS011;3805;49.006;8.514;2022-07-22T02:45:28;11.77;;;10.70;;
7527;SDS011;3805;49.006;8.514;2022-07-22T02:48:17;10.80;;;9.80;;
7527;SDS011;3805;49.006;8.514;2022-07-22T02:51:07;11.73;;;10.63;;
7527;SDS011;3805;49.006;8.514;2022-07-22T02:53:56;10.90;;;9.90;;
7527;SDS011;3805;49.006;8.514;2022-07-22T02:56:44;11.33;;;10.30;;
7527;SDS011;3805;49.006;8.514;2022-07-22T02:59:33;12.30;;;11.10;;
7527;SDS011;3805;49.006;8.514;2022-07-22T03:02:23;14.70;;;12.30;;
7527;SDS011;3805;49.006;8.514;2022-07-22T03:05:11;11.67;;;10.73;;
7527;SDS011;3805;49.006;8.514;2022-07-22T03:08:00;11.10;;;10.10;;
7527;SDS011;3805;49.006;8.514;2022-07-22T03:10:49;12.40;;;11.30;;
7527;SDS011;3805;49.006;8.514;2022-07-22T03:13:38;11.53;;;10.43;;
7527;SDS011;3805;49.006;8.514;2022-07-22T03:16:26;12.20;;;11.20;;
7527;SDS011;3805;49.006;8.514;2022-07-22T03:19:18;12.83;;;11.73;;
7527;SDS011;3805;49.006;8.514;2022-07-22T03:22:07;13.27;;;11.93;;
7527;SDS011;3805;49.006;8.514;2022-07-22T03:24:56;12.60;;;11.47;;
7527;SDS011;3805;49.006;8.514;2022-07-22T03:27:44;12.93;;;11.63;;
7527;SDS011;3805;49.006;8.514;2022-07-22T03:30:33;12.50;;;11.30;;
7527;SDS011;3805;49.006;8.514;2022-07-22T03:33:21;13.10;;;12.00;;
7527;SDS011;3805;49.006;8.514;2022-07-22T03:36:11;12.47;;;11.30;;
7527;SDS011;3805;49.006;8.514;2022-07-22T03:39:00;14.93;;;12.67;;
7527;SDS011;3805;49.006;8.514;2022-07-22T03:41:48;12.57;;;11.47;;
7527;SDS011;3805;49.006;8.514;2022-07-22T03:44:37;11.40;;;10.40;;
7527;SDS011;3805;49.006;8.514;2022-07-22T03:47:26;12.60;;;11.50;;
7527;SDS011;3805;49.006;8.514;2022-07-22T03:50:14;12.93;;;11.70;;
7527;SDS011;3805;49.006;8.514;2022-07-22T03:53:04;13.90;;;11.37;;
7527;SDS011;3805;49.006;8.514;2022-07-22T03:55:53;11.83;;;10.83;;
7527;SDS011;3805;49.006;8.514;2022-07-22T03:58:41;12.13;;;11.13;;
7527;SDS011;3805;49.006;8.514;2022-07-22T04:01:30;11.50;;;10.50;;
7527;SDS011;3805;49.006;8.514;2022-07-22T04:04:19;10.90;;;9.90;;
7527;SDS011;3805;49.006;8.514;2022-07-22T04:07:07;12.20;;;11.10;;
7527;SDS011;3805;49.006;8.514;2022-07-22T04:09:59;12.80;;;11.60;;
7527;SDS011;3805;49.006;8.514;2022-07-22T04:12:52;12.50;;;11.50;;
7527;SDS011;3805;49.006;8.514;2022-07-22T04:15:41;12.70;;;11.50;;
7527;SDS011;3805;49.006;8.514;2022-07-22T04:18:30;12.77;;;11.73;;
7527;SDS011;3805;49.006;8.514;2022-07-22T04:21:18;12.70;;;11.50;;
7527;SDS011;3805;49.006;8.514;2022-07-22T04:24:10;12.97;;;11.73;;
7527;SDS011;3805;49.006;8.514;2022-07-22T04:27:00;13.20;;;12.10;;
7527;SDS011;3805;49.006;8.514;2022-07-22T04:29:48;12.53;;;11.43;;
7527;SDS011;3805;49.006;8.514;2022-07-22T04:32:37;12.73;;;11.63;;
7527;SDS011;3805;49.006;8.514;2022-07-22T04:35:25;13.67;;;12.27;;
7527;SDS011;3805;49.006;8.514;2022-07-22T04:38:15;13.00;;;11.90;;
7527;SDS011;3805;49.006;8.514;2022-07-22T04:41:04;13.60;;;11.70;;
7527;SDS011;3805;49.006;8.514;2022-07-22T04:43:54;12.57;;;11.30;;
7527;SDS011;3805;49.006;8.514;2022-07-22T04:46:43;12.17;;;11.10;;
7527;SDS011;3805;49.006;8.514;2022-07-22T04:49:32;12.77;;;11.57;;
7527;SDS011;3805;49.006;8.514;2022-07-22T04:52:21;12.50;;;11.40;;
7527;SDS011;3805;49.006;8.514;2022-07-22T04:55:10;12.30;;;11.30;;
7527;SDS011;3805;49.006;8.514;2022-07-22T04:57:59;13.33;;;12.13;;
7527;SDS011;3805;49.006;8.514;2022-07-22T05:00:49;13.13;;;11.93;;
7527;SDS011;3805;49.006;8.514;2022-07-22T05:03:37;13.30;;;12.10;;
7527;SDS011;3805;49.006;8.514;2022-07-22T05:06:26;14.03;;;12.70;;
7527;SDS011;3805;49.006;8.514;2022-07-22T05:09:15;13.23;;;11.93;;
7527;SDS011;3805;49.006;8.514;2022-07-22T05:12:03;12.53;;;11.33;;
7527;SDS011;3805;49.006;8.514;2022-07-22T05:14:52;13.03;;;11.83;;
7527;SDS011;3805;49.006;8.514;2022-07-22T05:17:42;13.63;;;12.10;;
7527;SDS011;3805;49.006;8.514;2022-07-22T05:20:31;13.03;;;11.93;;
7527;SDS011;3805;49.006;8.514;2022-07-22T05:23:19;12.70;;;11.40;;
7527;SDS011;3805;49.006;8.514;2022-07-22T05:26:08;15.83;;;12.20;;
7527;SDS011;3805;49.006;8.514;2022-07-22T05:28:59;13.57;;;12.30;;
7527;SDS011;3805;49.006;8.514;2022-07-22T05:31:49;14.87;;;13.33;;
7527;SDS011;3805;49.006;8.514;2022-07-22T05:34:39;13.07;;;11.77;;
7527;SDS011;3805;49.006;8.514;2022-07-22T05:37:27;13.30;;;12.10;;
7527;SDS011;3805;49.006;8.514;2022-07-22T05:40:16;13.47;;;12.17;;
7527;SDS011;3805;49.006;8.514;2022-07-22T05:43:05;14.87;;;13.20;;
7527;SDS011;3805;49.006;8.514;2022-07-22T05:45:53;14.83;;;13.30;;
7527;SDS011;3805;49.006;8.514;2022-07-22T05:48:42;15.80;;;14.17;;
7527;SDS011;3805;49.006;8.514;2022-07-22T05:51:32;16.67;;;13.50;;
7527;SDS011;3805;49.006;8.514;2022-07-22T05:54:21;14.17;;;12.70;;
7527;SDS011;3805;49.006;8.514;2022-07-22T05:57:10;13.13;;;12.00;;
7527;SDS011;3805;49.006;8.514;2022-07-22T05:59:58;13.40;;;12.10;;
7527;SDS011;3805;49.006;8.514;2022-07-22T06:02:47;14.10;;;12.60;;
7527;SDS011;3805;49.006;8.514;2022-07-22T06:05:38;14.03;;;12.83;;
7527;SDS011;3805;49.006;8.514;2022-07-22T06:08:28;14.10;;;12.80;;
7527;SDS011;3805;49.006;8.514;2022-07-22T06:11:17;13.00;;;11.83;;
7527;SDS011;3805;49.006;8.514;2022-07-22T06:14:05;13.63;;;12.27;;
7527;SDS011;3805;49.006;8.514;2022-07-22T06:16:54;14.40;;;13.03;;
7527;SDS011;3805;49.006;8.514;2022-07-22T06:19:42;13.00;;;11.80;;
7527;SDS011;3805;49.006;8.514;2022-07-22T06:22:31;14.07;;;12.67;;
7527;SDS011;3805;49.006;8.514;2022-07-22T06:25:21;13.60;;;12.23;;
7527;SDS011;3805;49.006;8.514;2022-07-22T06:28:30;12.53;;;11.33;;
7527;SDS011;3805;49.006;8.514;2022-07-22T06:31:18;14.47;;;11.33;;
7527;SDS011;3805;49.006;8.514;2022-07-22T06:34:07;12.57;;;11.30;;
7527;SDS011;3805;49.006;8.514;2022-07-22T06:36:56;12.93;;;11.63;;
7527;SDS011;3805;49.006;8.514;2022-07-22T06:39:44;13.70;;;12.40;;
7527;SDS011;3805;49.006;8.514;2022-07-22T06:42:36;12.90;;;11.70;;
7527;SDS011;3805;49.006;8.514;2022-07-22T06:45:25;12.07;;;10.90;;
7527;SDS011;3805;49.006;8.514;2022-07-22T06:48:14;15.17;;;12.90;;
7527;SDS011;3805;49.006;8.514;2022-07-22T06:51:06;12.10;;;11.00;;
7527;SDS011;3805;49.006;8.514;2022-07-22T06:53:55;12.83;;;11.63;;
7527;SDS011;3805;49.006;8.514;2022-07-22T06:56:44;12.60;;;11.30;;
7527;SDS011;3805;49.006;8.514;2022-07-22T06:59:34;17.40;;;11.13;;
7527;SDS011;3805;49.006;8.514;2022-07-22T07:02:22;11.67;;;10.50;;
7527;SDS011;3805;49.006;8.514;2022-07-22T07:05:11;11.87;;;10.67;;
7527;SDS011;3805;49.006;8.514;2022-07-22T07:08:06;13.00;;;11.53;;
7527;SDS011;3805;49.006;8.514;2022-07-22T07:10:57;11.43;;;10.43;;
7527;SDS011;3805;49.006;8.514;2022-07-22T07:13:46;14.97;;;10.93;;
7527;SDS011;3805;49.006;8.514;2022-07-22T07:16:37;12.03;;;11.00;;
7527;SDS011;3805;49.006;8.514;2022-07-22T07:19:25;10.43;;;9.53;;
7527;SDS011;3805;49.006;8.514;2022-07-22T07:22:16;12.40;;;10.80;;
7527;SDS011;3805;49.006;8.514;2022-07-22T07:25:08;12.10;;;10.90;;
7527;SDS011;3805;49.006;8.514;2022-07-22T07:28:09;11.20;;;10.10;;
7527;SDS011;3805;49.006;8.514;2022-07-22T07:31:00;10.70;;;9.77;;
7527;SDS011;3805;49.006;8.514;2022-07-22T07:33:53;9.40;;;8.70;;
7527;SDS011;3805;49.006;8.514;2022-07-22T07:36:42;11.27;;;10.20;;
7527;SDS011;3805;49.006;8.514;2022-07-22T07:39:30;10.20;;;8.83;;
7527;SDS011;3805;49.006;8.514;2022-07-22T07:42:19;11.07;;;9.97;;
7527;SDS011;3805;49.006;8.514;2022-07-22T07:45:08;10.10;;;9.20;;
7527;SDS011;3805;49.006;8.514;2022-07-22T07:47:59;9.90;;;9.00;;
7527;SDS011;3805;49.006;8.514;2022-07-22T07:50:49;10.50;;;9.50;;
7527;SDS011;3805;49.006;8.514;2022-07-22T07:53:38;10.40;;;9.40;;
7527;SDS011;3805;49.006;8.514;2022-07-22T07:56:28;9.40;;;8.63;;
7527;SDS011;3805;49.006;8.514;2022-07-22T07:59:17;11.53;;;9.90;;
7527;SDS011;3805;49.006;8.514;2022-07-22T08:02:15;9.07;;;8.27;;
7527;SDS011;3805;49.006;8.514;2022-07-22T08:05:04;9.87;;;8.97;;
7527;SDS011;3805;49.006;8.514;2022-07-22T08:07:55;9.93;;;8.80;;
7527;SDS011;3805;49.006;8.514;2022-07-22T08:10:44;9.53;;;8.73;;
7527;SDS011;3805;49.006;8.514;2022-07-22T08:13:48;9.47;;;8.67;;
7527;SDS011;3805;49.006;8.514;2022-07-22T08:16:37;11.10;;;10.10;;
7527;SDS011;3805;49.006;8.514;2022-07-22T08:19:26;14.30;;;9.33;;
7527;SDS011;3805;49.006;8.514;2022-07-22T08:22:15;10.73;;;9.77;;
7527;SDS011;3805;49.006;8.514;2022-07-22T08:25:05;10.77;;;9.80;;
7527;SDS011;3805;49.006;8.514;2022-07-22T08:27:54;11.53;;;9.50;;
7527;SDS011;3805;49.006;8.514;2022-07-22T08:30:45;9.93;;;9.00;;
7527;SDS011;3805;49.006;8.514;2022-07-22T08:33:35;10.70;;;9.60;;
7527;SDS011;3805;49.006;8.514;2022-07-22T08:36:24;9.90;;;9.10;;
7527;SDS011;3805;49.006;8.514;2022-07-22T08:39:13;10.13;;;9.10;;
7527;SDS011;3805;49.006;8.514;2022-07-22T08:42:09;9.40;;;8.70;;
7527;SDS011;3805;49.006;8.514;2022-07-22T08:45:00;12.10;;;10.17;;
7527;SDS011;3805;49.006;8.514;2022-07-22T08:47:52;10.37;;;9.47;;
7527;SDS011;3805;49.006;8.514;2022-07-22T08:50:42;10.27;;;9.17;;
7527;SDS011;3805;49.006;8.514;2022-07-22T08:53:30;9.77;;;8.70;;
7527;SDS011;3805;49.006;8.514;2022-07-22T08:56:19;9.00;;;8.30;;
7527;SDS011;3805;49.006;8.514;2022-07-22T08:59:09;10.13;;;9.23;;
7527;SDS011;3805;49.006;8.514;2022-07-22T09:02:01;10.03;;;9.17;;
7527;SDS011;3805;49.006;8.514;2022-07-22T09:04:52;9.30;;;8.60;;
7527;SDS011;3805;49.006;8.514;2022-07-22T09:07:42;11.00;;;10.10;;
7527;SDS011;3805;49.006;8.514;2022-07-22T09:10:32;10.33;;;9.50;;
7527;SDS011;3805;49.006;8.514;2022-07-22T09:13:22;10.30;;;9.30;;
7527;SDS011;3805;49.006;8.514;2022-07-22T09:16:13;10.17;;;9.17;;
7527;SDS011;3805;49.006;8.514;2022-07-22T09:19:01;9.37;;;8.60;;
7527;SDS011;3805;49.006;8.514;2022-07-22T09:21:50;10.00;;;9.10;;
7527;SDS011;3805;49.006;8.514;2022-07-22T09:24:39;10.17;;;9.23;;
7527;SDS011;3805;49.006;8.514;2022-07-22T09:27:27;9.60;;;8.73;;
7527;SDS011;3805;49.006;8.514;2022-07-22T09:30:20;10.80;;;9.20;;
7527;SDS011;3805;49.006;8.514;2022-07-22T09:33:12;8.80;;;8.00;;
7527;SDS011;3805;49.006;8.514;2022-07-22T09:36:02;9.43;;;8.63;;
7527;SDS011;3805;49.006;8.514;2022-07-22T09:38:53;9.67;;;8.73;;
7527;SDS011;3805;49.006;8.514;2022-07-22T09:41:55;9.57;;;8.87;;
7527;SDS011;3805;49.006;8.514;2022-07-22T09:44:45;9.47;;;8.10;;
7527;SDS011;3805;49.006;8.514;2022-07-22T09:47:36;9.23;;;8.40;;
7527;SDS011;3805;49.006;8.514;2022-07-22T09:50:27;9.43;;;8.57;;
7527;SDS011;3805;49.006;8.514;2022-07-22T09:53:20;8.30;;;7.70;;
7527;SDS011;3805;49.006;8.514;2022-07-22T09:56:09;9.27;;;8.33;;
7527;SDS011;3805;49.006;8.514;2022-07-22T09:58:58;9.60;;;8.70;;
7527;SDS011;3805;49.006;8.514;2022-07-22T10:01:47;10.23;;;9.30;;
7527;SDS011;3805;49.006;8.514;2022-07-22T10:04:43;8.47;;;7.73;;
7527;SDS011;3805;49.006;8.514;2022-07-22T10:07:34;8.97;;;8.27;;
7527;SDS011;3805;49.006;8.514;2022-07-22T10:10:26;8.27;;;7.57;;
7527;SDS011;3805;49.006;8.514;2022-07-22T10:13:16;11.20;;;9.17;;
7527;SDS011;3805;49.006;8.514;2022-07-22T10:16:06;10.17;;;9.30;;
7527;SDS011;3805;49.006;8.514;2022-07-22T10:18:55;8.77;;;8.00;;
7527;SDS011;3805;49.006;8.514;2022-07-22T10:21:44;9.70;;;8.97;;
7527;SDS011;3805;49.006;8.514;2022-07-22T10:24:34;8.53;;;7.83;;
7527;SDS011;3805;49.006;8.514;2022-07-22T10:27:48;8.93;;;8.33;;
7527;SDS011;3805;49.006;8.514;2022-07-22T10:30:37;8.67;;;8.07;;
7527;SDS011;3805;49.006;8.514;2022-07-22T10:33:29;9.07;;;8.27;;
7527;SDS011;3805;49.006;8.514;2022-07-22T10:39:25;8.10;;;7.60;;
7527;SDS011;3805;49.006;8.514;2022-07-22T10:42:15;9.30;;;8.40;;
7527;SDS011;3805;49.006;8.514;2022-07-22T10:45:05;8.67;;;8.07;;
7527;SDS011;3805;49.006;8.514;2022-07-22T10:47:59;9.63;;;8.70;;
7527;SDS011;3805;49.006;8.514;2022-07-22T10:50:51;10.30;;;8.20;;
7527;SDS011;3805;49.006;8.514;2022-07-22T10:53:55;9.43;;;8.70;;
7527;SDS011;3805;49.006;8.514;2022-07-22T10:56:48;8.90;;;8.20;;
7527;SDS011;3805;49.006;8.514;2022-07-22T10:59:38;9.17;;;8.27;;
7527;SDS011;3805;49.006;8.514;2022-07-22T11:02:26;8.77;;;8.17;;
7527;SDS011;3805;49.006;8.514;2022-07-22T11:05:23;9.70;;;8.80;;
7527;SDS011;3805;49.006;8.514;2022-07-22T11:08:13;9.67;;;8.73;;
7527;SDS011;3805;49.006;8.514;2022-07-22T11:11:01;9.13;;;8.33;;
7527;SDS011;3805;49.006;8.514;2022-07-22T11:13:50;10.50;;;8.40;;
7527;SDS011;3805;49.006;8.514;2022-07-22T11:16:40;8.93;;;8.23;;
7527;SDS011;3805;49.006;8.514;2022-07-22T11:19:32;9.17;;;8.47;;
7527;SDS011;3805;49.006;8.514;2022-07-22T11:22:24;8.57;;;7.80;;
7527;SDS011;3805;49.006;8.514;2022-07-22T11:25:12;8.40;;;7.80;;
7527;SDS011;3805;49.006;8.514;2022-07-22T11:28:02;9.60;;;8.90;;
7527;SDS011;3805;49.006;8.514;2022-07-22T11:31:04;8.53;;;7.80;;
7527;SDS011;3805;49.006;8.514;2022-07-22T11:34:05;9.63;;;8.77;;
7527;SDS011;3805;49.006;8.514;2022-07-22T11:36:55;9.67;;;8.77;;
7527;SDS011;3805;49.006;8.514;2022-07-22T11:39:44;8.63;;;7.90;;
7527;SDS011;3805;49.006;8.514;2022-07-22T11:42:37;9.50;;;8.80;;
7527;SDS011;3805;49.006;8.514;2022-07-22T11:45:25;9.13;;;8.47;;
7527;SDS011;3805;49.006;8.514;2022-07-22T11:48:14;9.60;;;8.90;;
7527;SDS011;3805;49.006;8.514;2022-07-22T11:51:10;8.90;;;8.10;;
7527;SDS011;3805;49.006;8.514;2022-07-22T11:54:07;8.13;;;7.53;;
7527;SDS011;3805;49.006;8.514;2022-07-22T11:56:56;8.30;;;7.53;;
7527;SDS011;3805;49.006;8.514;2022-07-22T11:59:47;11.77;;;8.40;;
7527;SDS011;3805;49.006;8.514;2022-07-22T12:02:36;9.10;;;8.27;;
7527;SDS011;3805;49.006;8.514;2022-07-22T12:05:25;8.50;;;7.80;;
7527;SDS011;3805;49.006;8.514;2022-07-22T12:08:22;8.80;;;8.20;;
7527;SDS011;3805;49.006;8.514;2022-07-22T12:11:13;7.93;;;7.30;;
7527;SDS011;3805;49.006;8.514;2022-07-22T12:14:05;8.07;;;7.47;;
7527;SDS011;3805;49.006;8.514;2022-07-22T12:17:03;8.30;;;7.50;;
7527;SDS011;3805;49.006;8.514;2022-07-22T12:19:53;8.77;;;8.07;;
7527;SDS011;3805;49.006;8.514;2022-07-22T12:22:44;8.10;;;7.50;;
7527;SDS011;3805;49.006;8.514;2022-07-22T12:25:34;8.43;;;7.63;;
7527;SDS011;3805;49.006;8.514;2022-07-22T12:28:37;8.47;;;7.87;;
7527;SDS011;3805;49.006;8.514;2022-07-22T12:31:26;8.70;;;8.07;;
7527;SDS011;3805;49.006;8.514;2022-07-22T12:34:16;8.40;;;7.70;;
7527;SDS011;3805;49.006;8.514;2022-07-22T12:37:12;8.63;;;7.93;;
7527;SDS011;3805;49.006;8.514;2022-07-22T12:40:04;8.73;;;7.70;;
7527;SDS011;3805;49.006;8.514;2022-07-22T12:43:00;9.70;;;8.07;;
7527;SDS011;3805;49.006;8.514;2022-07-22T12:45:50;11.37;;;8.20;;
7527;SDS011;3805;49.006;8.514;2022-07-22T12:48:39;8.13;;;7.30;;
7527;SDS011;3805;49.006;8.514;2022-07-22T12:51:36;9.13;;;8.37;;
7527;SDS011;3805;49.006;8.514;2022-07-22T12:54:25;7.77;;;7.17;;
7527;SDS011;3805;49.006;8.514;2022-07-22T12:57:14;7.33;;;6.73;;
7527;SDS011;3805;49.006;8.514;2022-07-22T13:00:04;7.47;;;6.90;;
7527;SDS011;3805;49.006;8.514;2022-07-22T13:02:54;7.83;;;7.30;;
7527;SDS011;3805;49.006;8.514;2022-07-22T13:05:43;7.70;;;7.20;;
7527;SDS011;3805;49.006;8.514;2022-07-22T13:08:32;8.30;;;7.53;;
7527;SDS011;3805;49.006;8.514;2022-07-22T13:11:32;8.40;;;7.73;;
7527;SDS011;3805;49.006;8.514;2022-07-22T13:14:26;8.20;;;7.53;;
7527;SDS011;3805;49.006;8.514;2022-07-22T13:17:22;8.50;;;7.80;;
7527;SDS011;3805;49.006;8.514;2022-07-22T13:20:11;8.27;;;7.50;;
7527;SDS011;3805;49.006;8.514;2022-07-22T13:23:09;8.00;;;7.40;;
7527;SDS011;3805;49.006;8.514;2022-07-22T13:25:58;10.17;;;8.27;;
7527;SDS011;3805;49.006;8.514;2022-07-22T13:28:47;8.10;;;7.30;;
7527;SDS011;3805;49.006;8.514;2022-07-22T13:31:35;9.20;;;8.00;;
7527;SDS011;3805;49.006;8.514;2022-07-22T13:34:45;7.70;;;7.10;;
7527;SDS011;3805;49.006;8.514;2022-07-22T13:37:34;9.50;;;7.27;;
7527;SDS011;3805;49.006;8.514;2022-07-22T13:40:23;8.33;;;7.63;;
7527;SDS011;3805;49.006;8.514;2022-07-22T13:43:13;8.10;;;7.60;;
7527;SDS011;3805;49.006;8.514;2022-07-22T13:46:01;8.43;;;7.83;;
7527;SDS011;3805;49.006;8.514;2022-07-22T13:48:51;9.27;;;8.17;;
7527;SDS011;3805;49.006;8.514;2022-07-22T13:51:44;8.30;;;7.50;;
7527;SDS011;3805;49.006;8.514;2022-07-22T13:54:33;8.77;;;8.10;;
7527;SDS011;3805;49.006;8.514;2022-07-22T13:57:25;7.60;;;7.00;;
7527;SDS011;3805;49.006;8.514;2022-07-22T14:00:14;8.37;;;7.77;;
7527;SDS011;3805;49.006;8.514;2022-07-22T14:03:04;9.30;;;7.53;;
7527;SDS011;3805;49.006;8.514;2022-07-22T14:05:53;6.97;;;6.37;;
7527;SDS011;3805;49.006;8.514;2022-07-22T14:08:43;7.77;;;7.27;;
7527;SDS011;3805;49.006;8.514;2022-07-22T14:11:32;8.03;;;7.43;;
7527;SDS011;3805;49.006;8.514;2022-07-22T14:14:21;7.80;;;7.20;;
7527;SDS011;3805;49.006;8.514;2022-07-22T14:17:09;8.13;;;7.40;;
7527;SDS011;3805;49.006;8.514;2022-07-22T14:19:59;7.83;;;7.23;;
7527;SDS011;3805;49.006;8.514;2022-07-22T14:22:52;8.03;;;7.40;;
7527;SDS011;3805;49.006;8.514;2022-07-22T14:25:42;8.43;;;7.73;;
7527;SDS011;3805;49.006;8.514;2022-07-22T14:28:30;8.50;;;7.90;;
7527;SDS011;3805;49.006;8.514;2022-07-22T14:31:22;8.07;;;7.37;;
7527;SDS011;3805;49.006;8.514;2022-07-22T14:34:11;7.63;;;7.13;;
7527;SDS011;3805;49.006;8.514;2022-07-22T14:36:59;8.70;;;7.90;;
7527;SDS011;3805;49.006;8.514;2022-07-22T14:39:48;8.23;;;7.67;;
7527;SDS011;3805;49.006;8.514;2022-07-22T14:42:40;7.90;;;7.40;;
7527;SDS011;3805;49.006;8.514;2022-07-22T14:45:28;8.50;;;7.80;;
7527;SDS011;3805;49.006;8.514;2022-07-22T14:48:17;7.83;;;7.23;;
7527;SDS011;3805;49.006;8.514;2022-07-22T14:51:06;7.83;;;7.27;;
7527;SDS011;3805;49.006;8.514;2022-07-22T14:53:55;12.40;;;7.77;;
7527;SDS011;3805;49.006;8.514;2022-07-22T14:56:45;7.97;;;7.47;;
7527;SDS011;3805;49.006;8.514;2022-07-22T14:59:35;9.03;;;8.13;;
7527;SDS011;3805;49.006;8.514;2022-07-22T15:02:23;8.30;;;7.47;;
7527;SDS011;3805;49.006;8.514;2022-07-22T15:05:12;7.70;;;7.20;;
7527;SDS011;3805;49.006;8.514;2022-07-22T15:08:01;7.53;;;6.93;;
7527;SDS011;3805;49.006;8.514;2022-07-22T15:10:51;8.77;;;7.97;;
7527;SDS011;3805;49.006;8.514;2022-07-22T15:13:40;9.20;;;7.80;;
7527;SDS011;3805;49.006;8.514;2022-07-22T15:16:31;7.40;;;6.90;;
7527;SDS011;3805;49.006;8.514;2022-07-22T15:19:20;8.07;;;7.47;;
7527;SDS011;3805;49.006;8.514;2022-07-22T15:22:13;8.27;;;7.67;;
7527;SDS011;3805;49.006;8.514;2022-07-22T15:25:02;7.63;;;7.03;;
7527;SDS011;3805;49.006;8.514;2022-07-22T15:27:51;7.53;;;7.03;;
7527;SDS011;3805;49.006;8.514;2022-07-22T15:31:00;7.73;;;7.00;;
7527;SDS011;3805;49.006;8.514;2022-07-22T15:33:50;8.00;;;7.40;;
7527;SDS011;3805;49.006;8.514;2022-07-22T15:36:39;8.40;;;7.80;;
7527;SDS011;3805;49.006;8.514;2022-07-22T15:39:27;8.27;;;7.67;;
7527;SDS011;3805;49.006;8.514;2022-07-22T15:42:18;7.93;;;7.33;;
7527;SDS011;3805;49.006;8.514;2022-07-22T15:45:07;7.60;;;7.10;;
7527;SDS011;3805;49.006;8.514;2022-07-22T15:47:57;11.37;;;7.67;;
7527;SDS011;3805;49.006;8.514;2022-07-22T15:50:47;7.83;;;7.30;;
7527;SDS011;3805;49.006;8.514;2022-07-22T15:53:36;7.30;;;6.70;;
7527;SDS011;3805;49.006;8.514;2022-07-22T15:56:24;8.10;;;6.87;;
7527;SDS011;3805;49.006;8.514;2022-07-22T15:59:13;8.10;;;7.53;;
7527;SDS011;3805;49.006;8.514;2022-07-22T16:02:22;8.83;;;8.03;;
7527;SDS011;3805;49.006;8.514;2022-07-22T16:05:10;8.87;;;7.97;;
7527;SDS011;3805;49.006;8.514;2022-07-22T16:08:01;7.90;;;7.30;;
7527;SDS011;3805;49.006;8.514;2022-07-22T16:10:52;8.00;;;7.40;;
7527;SDS011;3805;49.006;8.514;2022-07-22T16:13:40;8.23;;;7.40;;
7527;SDS011;3805;49.006;8.514;2022-07-22T16:16:29;8.63;;;7.93;;
7527;SDS011;3805;49.006;8.514;2022-07-22T16:19:18;8.77;;;8.13;;
7527;SDS011;3805;49.006;8.514;2022-07-22T16:22:07;8.20;;;7.70;;
7527;SDS011;3805;49.006;8.514;2022-07-22T16:24:57;8.40;;;7.57;;
7527;SDS011;3805;49.006;8.514;2022-07-22T16:27:45;8.60;;;8.00;;
7527;SDS011;3805;49.006;8.514;2022-07-22T16:30:34;8.10;;;7.60;;
7527;SDS011;3805;49.006;8.514;2022-07-22T16:33:22;8.13;;;7.33;;
7527;SDS011;3805;49.006;8.514;2022-07-22T16:36:12;7.90;;;7.20;;
7527;SDS011;3805;49.006;8.514;2022-07-22T16:39:00;7.80;;;7.30;;
7527;SDS011;3805;49.006;8.514;2022-07-22T16:41:51;8.50;;;7.73;;
7527;SDS011;3805;49.006;8.514;2022-07-22T16:44:39;8.67;;;7.20;;
7527;SDS011;3805;49.006;8.514;2022-07-22T16:47:28;8.23;;;7.40;;
7527;SDS011;3805;49.006;8.514;2022-07-22T16:50:17;8.57;;;7.93;;
7527;SDS011;3805;49.006;8.514;2022-07-22T16:53:05;7.90;;;7.40;;
7527;SDS011;3805;49.006;8.514;2022-07-22T16:55:54;8.17;;;7.57;;
7527;SDS011;3805;49.006;8.514;2022-07-22T16:58:44;8.30;;;7.50;;
7527;SDS011;3805;49.006;8.514;2022-07-22T17:01:33;8.40;;;7.70;;
7527;SDS011;3805;49.006;8.514;2022-07-22T17:04:21;8.80;;;8.10;;
7527;SDS011;3805;49.006;8.514;2022-07-22T17:07:10;8.57;;;7.77;;
7527;SDS011;3805;49.006;8.514;2022-07-22T17:09:58;8.70;;;7.97;;
7527;SDS011;3805;49.006;8.514;2022-07-22T17:12:47;8.60;;;7.77;;
7527;SDS011;3805;49.006;8.514;2022-07-22T17:15:52;8.63;;;7.40;;
7527;SDS011;3805;49.006;8.514;2022-07-22T17:18:42;7.70;;;7.10;;
7527;SDS011;3805;49.006;8.514;2022-07-22T17:21:31;8.67;;;7.90;;
7527;SDS011;3805;49.006;8.514;2022-07-22T17:24:19;8.00;;;7.40;;
7527;SDS011;3805;49.006;8.514;2022-07-22T17:27:08;8.47;;;7.83;;
7527;SDS011;3805;49.006;8.514;2022-07-22T17:29:57;7.83;;;7.13;;